Time;durP1;ratioP1;P1;durP2;ratioP2;P2;SDS_P1;SDS_P2;PMS_P1;PMS_P2;Temp;Humidity;BMP_temperature;BMP_pressure;BME280_temperature;BME280_humidity;BME280_pressure;Samples;Min_cycle;Max_cycle;Signal;HPM_P1;HPM_P2
2023/10/29 00:00:11;;;;;;;5.60;2.58;;;7.90;99.90;;;;;;6195852;23;20426;-66
2023/10/29 00:02:37;;;;;;;6.25;2.35;;;7.90;99.90;;;;;;6200406;23;20099;-66
2023/10/29 00:05:03;;;;;;;4.95;2.15;;;7.90;99.90;;;;;;6196590;23;20024;-65
2023/10/29 00:07:28;;;;;;;4.65;2.13;;;7.90;99.90;;;;;;6200079;23;20009;-65
2023/10/29 00:09:55;;;;;;;3.70;2.40;;;7.80;99.90;;;;;;6184326;23;20327;-66
2023/10/29 00:12:20;;;;;;;4.45;2.15;;;7.90;99.90;;;;;;6200934;23;20011;-66
2023/10/29 00:14:46;;;;;;;6.20;1.65;;;7.90;99.90;;;;;;6199826;23;20080;-66
2023/10/29 00:17:12;;;;;;;2.10;1.60;;;7.90;99.90;;;;;;6200902;23;20012;-66
2023/10/29 00:19:38;;;;;;;2.05;1.17;;;7.90;99.90;;;;;;6195028;23;19997;-66
2023/10/29 00:22:04;;;;;;;4.40;1.20;;;7.80;99.90;;;;;;6196986;23;20008;-66
2023/10/29 00:24:30;;;;;;;2.97;1.63;;;7.80;99.90;;;;;;6201446;23;20047;-67
2023/10/29 00:26:55;;;;;;;2.97;1.85;;;7.70;99.90;;;;;;6199669;23;20059;-66
2023/10/29 00:29:21;;;;;;;1.95;1.55;;;7.70;99.90;;;;;;6199491;23;20009;-66
2023/10/29 00:31:47;;;;;;;2.45;1.42;;;7.80;99.90;;;;;;6199574;23;20028;-66
2023/10/29 00:34:13;;;;;;;3.25;1.60;;;7.90;99.90;;;;;;6193353;23;20028;-66
2023/10/29 00:36:38;;;;;;;3.38;1.60;;;7.90;99.90;;;;;;6195013;23;20050;-66
2023/10/29 00:39:04;;;;;;;2.53;1.75;;;7.90;99.90;;;;;;6200449;23;20342;-66
2023/10/29 00:41:30;;;;;;;1.55;1.13;;;7.80;99.90;;;;;;6197347;23;20468;-66
2023/10/29 00:43:56;;;;;;;1.75;1.38;;;7.90;99.90;;;;;;6198113;23;20028;-66
2023/10/29 00:46:23;;;;;;;3.28;1.83;;;7.90;99.90;;;;;;6201002;23;20009;-66
2023/10/29 00:48:50;;;;;;;3.30;1.40;;;7.90;99.90;;;;;;6194172;23;20673;-66
2023/10/29 00:51:17;;;;;;;2.42;1.40;;;8.00;99.90;;;;;;6199729;23;20001;-66
2023/10/29 00:53:43;;;;;;;3.08;1.75;;;8.10;99.90;;;;;;6198629;23;20008;-66
2023/10/29 00:56:11;;;;;;;3.38;2.20;;;8.10;99.90;;;;;;6198516;23;20039;-66
2023/10/29 00:58:37;;;;;;;4.85;2.42;;;8.10;99.90;;;;;;6200155;23;20548;-66
2023/10/29 01:01:03;;;;;;;3.45;2.28;;;8.10;99.90;;;;;;6202144;23;20036;-67
2023/10/29 01:03:29;;;;;;;4.80;2.72;;;8.20;99.90;;;;;;6202084;23;20012;-67
2023/10/29 01:05:56;;;;;;;4.68;2.80;;;8.20;99.90;;;;;;6200880;23;20007;-67
2023/10/29 01:08:22;;;;;;;5.30;2.63;;;8.30;99.90;;;;;;6201198;23;20047;-67
2023/10/29 01:10:47;;;;;;;3.35;1.67;;;8.30;99.90;;;;;;6201272;23;20043;-67
2023/10/29 01:13:13;;;;;;;2.58;1.30;;;8.30;99.90;;;;;;6199871;23;20140;-67
2023/10/29 01:15:39;;;;;;;2.05;1.60;;;8.30;99.90;;;;;;6172629;23;20005;-67
2023/10/29 01:18:06;;;;;;;3.33;1.52;;;8.30;99.90;;;;;;6199330;23;20040;-65
2023/10/29 01:20:32;;;;;;;3.15;1.98;;;8.20;99.90;;;;;;6196459;23;20004;-66
2023/10/29 01:22:58;;;;;;;3.83;2.35;;;8.20;99.90;;;;;;6200821;23;20017;-66
2023/10/29 01:25:23;;;;;;;3.80;1.88;;;8.20;99.90;;;;;;6201014;23;20005;-66
2023/10/29 01:27:49;;;;;;;3.42;2.55;;;8.20;99.90;;;;;;6199856;23;20459;-66
2023/10/29 01:30:15;;;;;;;2.90;1.92;;;8.20;99.90;;;;;;6198291;23;20019;-66
2023/10/29 01:32:40;;;;;;;2.35;1.65;;;8.20;99.90;;;;;;6198579;23;20008;-66
2023/10/29 01:35:06;;;;;;;1.40;1.30;;;8.20;99.90;;;;;;6198658;23;20674;-66
2023/10/29 01:37:32;;;;;;;2.47;1.58;;;8.20;99.90;;;;;;6200837;23;20008;-67
2023/10/29 01:39:58;;;;;;;3.03;1.90;;;8.20;99.90;;;;;;6199605;23;20598;-66
2023/10/29 01:42:23;;;;;;;2.05;1.42;;;8.20;99.90;;;;;;6201939;23;20005;-67
2023/10/29 01:44:49;;;;;;;3.35;1.75;;;8.20;99.90;;;;;;6201503;23;20087;-66
2023/10/29 01:47:15;;;;;;;3.15;1.55;;;8.20;99.90;;;;;;6199961;23;20007;-66
2023/10/29 01:49:40;;;;;;;3.35;1.73;;;8.20;99.90;;;;;;6169345;23;20338;-66
2023/10/29 01:52:06;;;;;;;4.75;1.90;;;8.20;99.90;;;;;;6198739;23;20009;-67
2023/10/29 01:54:32;;;;;;;2.63;1.75;;;8.20;99.90;;;;;;6199837;23;20076;-66
2023/10/29 01:56:57;;;;;;;2.55;1.67;;;8.20;99.90;;;;;;6197349;23;20497;-66
2023/10/29 01:59:23;;;;;;;3.67;1.95;;;8.20;99.90;;;;;;6195095;23;20011;-66
2023/10/29 02:01:50;;;;;;;5.65;1.90;;;8.10;99.90;;;;;;6197180;23;20015;-67
2023/10/29 02:04:16;;;;;;;2.33;2.03;;;8.10;99.90;;;;;;6197343;23;20078;-67
2023/10/29 02:06:41;;;;;;;3.58;1.70;;;8.10;99.90;;;;;;6194810;23;20644;-67
2023/10/29 02:09:12;;;;;;;2.13;1.80;;;8.10;99.90;;;;;;6192833;23;20070;-66
2023/10/29 02:11:39;;;;;;;4.07;1.70;;;8.00;99.90;;;;;;6195199;23;20243;-65
2023/10/29 02:14:08;;;;;;;4.40;2.00;;;8.00;99.90;;;;;;6198301;23;20028;-66
2023/10/29 02:16:33;;;;;;;4.32;2.20;;;7.90;99.90;;;;;;6197695;23;20334;-66
2023/10/29 02:18:59;;;;;;;3.05;2.33;;;7.90;99.90;;;;;;6197261;23;20009;-66
2023/10/29 02:21:25;;;;;;;2.17;1.88;;;7.90;99.90;;;;;;6168452;23;20042;-67
2023/10/29 02:23:52;;;;;;;3.00;2.30;;;7.80;99.90;;;;;;6199287;23;20024;-66
2023/10/29 02:26:18;;;;;;;3.45;2.05;;;7.80;99.90;;;;;;6197072;23;20500;-66
2023/10/29 02:28:43;;;;;;;3.95;2.85;;;7.80;99.90;;;;;;6198127;23;20004;-65
2023/10/29 02:31:17;;;;;;;2.97;1.70;;;7.80;99.90;;;;;;6196557;23;20574;-67
2023/10/29 02:33:49;;;;;;;2.75;2.35;;;7.80;99.90;;;;;;6198566;23;20004;-67
2023/10/29 02:36:15;;;;;;;3.40;2.55;;;7.90;99.90;;;;;;6199313;23;20005;-67
2023/10/29 02:38:42;;;;;;;3.78;2.13;;;7.90;99.90;;;;;;6196762;23;20005;-67
2023/10/29 02:41:08;;;;;;;3.72;2.15;;;7.90;99.90;;;;;;6197666;23;20013;-67
2023/10/29 02:43:34;;;;;;;3.38;1.80;;;7.80;99.90;;;;;;6197415;23;20016;-67
2023/10/29 02:46:00;;;;;;;2.75;1.77;;;7.80;99.90;;;;;;6198826;23;20012;-67
2023/10/29 02:48:27;;;;;;;2.85;2.00;;;7.70;99.90;;;;;;6196212;23;20031;-67
2023/10/29 02:50:53;;;;;;;4.80;2.40;;;7.60;99.90;;;;;;6195895;23;20070;-67
2023/10/29 02:53:19;;;;;;;2.60;2.00;;;7.60;99.90;;;;;;6198123;23;20012;-67
2023/10/29 02:55:45;;;;;;;3.75;1.92;;;7.60;99.90;;;;;;6197776;23;20104;-67
2023/10/29 02:58:10;;;;;;;2.67;2.13;;;7.70;99.90;;;;;;6198003;23;20035;-67
2023/10/29 03:00:36;;;;;;;2.63;1.98;;;7.70;99.90;;;;;;6197892;23;20051;-67
2023/10/29 03:03:02;;;;;;;3.80;2.50;;;7.80;99.90;;;;;;6172640;23;20017;-67
2023/10/29 03:05:27;;;;;;;4.18;2.20;;;7.90;99.90;;;;;;6199341;23;20008;-67
2023/10/29 03:07:53;;;;;;;3.97;2.60;;;7.90;99.90;;;;;;6199620;23;20008;-67
2023/10/29 03:10:19;;;;;;;3.17;2.20;;;8.10;99.90;;;;;;6198013;23;20042;-66
2023/10/29 03:12:44;;;;;;;4.95;2.63;;;8.10;99.90;;;;;;6198192;23;20331;-65
2023/10/29 03:15:10;;;;;;;3.47;2.78;;;8.20;99.90;;;;;;6193221;23;20009;-66
2023/10/29 03:17:36;;;;;;;4.28;2.45;;;8.20;99.90;;;;;;6197352;23;20036;-66
2023/10/29 03:20:02;;;;;;;3.17;2.55;;;8.30;99.90;;;;;;6197332;23;20696;-65
2023/10/29 03:22:27;;;;;;;4.32;2.30;;;8.30;99.90;;;;;;6198261;23;20009;-65
2023/10/29 03:24:53;;;;;;;4.15;2.80;;;8.40;99.90;;;;;;6200803;23;20056;-65
2023/10/29 03:27:19;;;;;;;3.25;2.45;;;8.40;99.90;;;;;;6199688;23;20005;-65
2023/10/29 03:29:44;;;;;;;3.63;2.58;;;8.50;99.90;;;;;;6197994;23;20032;-66
2023/10/29 03:32:10;;;;;;;4.13;2.58;;;8.50;99.90;;;;;;6173251;23;20077;-66
2023/10/29 03:34:36;;;;;;;23.45;8.95;;;8.60;99.90;;;;;;6200083;23;20038;-65
2023/10/29 03:37:01;;;;;;;20.02;9.25;;;8.70;99.90;;;;;;6199905;23;20001;-66
2023/10/29 03:39:30;;;;;;;20.02;8.75;;;8.70;99.90;;;;;;6197939;23;20013;-66
2023/10/29 03:41:56;;;;;;;13.95;6.80;;;8.70;99.90;;;;;;6199445;23;20003;-66
2023/10/29 03:44:22;;;;;;;7.97;3.85;;;8.80;99.90;;;;;;6198909;23;20036;-67
2023/10/29 03:46:51;;;;;;;10.77;4.75;;;8.80;99.90;;;;;;6173210;23;20031;-68
2023/10/29 03:49:20;;;;;;;7.22;4.10;;;8.80;99.90;;;;;;6196774;23;20091;-68
2023/10/29 03:51:47;;;;;;;7.65;3.92;;;8.90;99.90;;;;;;6198180;23;20035;-67
2023/10/29 03:54:12;;;;;;;7.57;3.00;;;8.90;99.90;;;;;;6200134;23;19997;-68
2023/10/29 03:56:38;;;;;;;7.15;3.22;;;9.00;99.90;;;;;;6199853;23;20104;-68
2023/10/29 03:59:04;;;;;;;7.20;3.53;;;9.00;99.90;;;;;;6199365;23;20308;-68
2023/10/29 04:01:29;;;;;;;6.15;3.10;;;9.10;99.90;;;;;;6201189;23;20148;-68
2023/10/29 04:03:55;;;;;;;4.18;2.60;;;9.10;99.90;;;;;;6199129;23;20417;-66
2023/10/29 04:06:21;;;;;;;4.68;2.80;;;9.20;99.90;;;;;;6199301;23;20001;-66
2023/10/29 04:08:47;;;;;;;2.78;2.08;;;9.20;99.90;;;;;;6197922;23;20004;-66
2023/10/29 04:11:13;;;;;;;2.95;2.08;;;9.30;99.90;;;;;;6199462;23;20334;-66
2023/10/29 04:13:39;;;;;;;4.55;1.63;;;9.30;99.90;;;;;;6198289;23;20009;-64
2023/10/29 04:16:05;;;;;;;3.90;2.00;;;9.30;99.90;;;;;;6199842;23;20386;-64
2023/10/29 04:18:31;;;;;;;4.93;1.42;;;9.40;99.90;;;;;;6172707;23;20135;-64
2023/10/29 04:20:58;;;;;;;2.30;1.13;;;9.30;99.90;;;;;;6196994;23;20714;-65
2023/10/29 04:23:24;;;;;;;7.00;1.63;;;9.30;99.90;;;;;;6196981;23;20013;-67
2023/10/29 04:25:49;;;;;;;2.20;1.42;;;9.30;99.90;;;;;;6198691;23;20028;-67
2023/10/29 04:28:15;;;;;;;1.65;1.30;;;9.30;99.90;;;;;;6199434;23;20012;-67
2023/10/29 04:30:41;;;;;;;3.92;1.40;;;9.30;99.90;;;;;;6199737;23;20005;-67
2023/10/29 04:33:08;;;;;;;1.65;1.08;;;9.30;99.90;;;;;;6199769;23;20004;-67
2023/10/29 04:35:33;;;;;;;2.40;1.15;;;9.40;99.90;;;;;;6202450;23;20004;-67
2023/10/29 04:37:59;;;;;;;2.97;1.27;;;9.40;99.90;;;;;;6200540;23;20000;-67
2023/10/29 04:40:25;;;;;;;3.47;1.50;;;9.50;99.90;;;;;;6199392;23;20816;-65
2023/10/29 04:42:50;;;;;;;4.18;1.80;;;9.50;99.90;;;;;;6175397;23;20020;-65
2023/10/29 04:45:16;;;;;;;4.18;1.80;;;9.50;99.90;;;;;;6199318;23;20043;-65
2023/10/29 04:47:42;;;;;;;4.43;2.25;;;9.60;99.90;;;;;;6201980;23;20005;-65
2023/10/29 04:50:07;;;;;;;11.65;3.47;;;9.60;99.90;;;;;;6201297;23;20009;-65
2023/10/29 04:52:33;;;;;;;7.63;3.70;;;9.70;99.90;;;;;;6197863;23;20168;-65
2023/10/29 04:55:05;;;;;;;9.27;3.20;;;9.70;99.90;;;;;;6174923;23;20063;-65
2023/10/29 04:57:31;;;;;;;15.60;3.95;;;9.70;99.90;;;;;;6200657;23;20386;-65
2023/10/29 04:59:57;;;;;;;9.48;4.25;;;9.70;99.90;;;;;;6200207;23;20000;-65
2023/10/29 05:02:22;;;;;;;9.10;4.93;;;9.80;99.90;;;;;;6200082;23;20727;-65
2023/10/29 05:04:50;;;;;;;15.10;5.25;;;9.80;99.90;;;;;;6200614;23;20147;-65
2023/10/29 05:07:15;;;;;;;12.60;5.65;;;9.80;99.90;;;;;;6200095;23;20001;-65
2023/10/29 05:09:41;;;;;;;24.08;7.15;;;9.80;99.90;;;;;;6199746;23;20044;-65
2023/10/29 05:12:07;;;;;;;20.38;6.78;;;9.90;99.90;;;;;;6200335;23;20008;-65
2023/10/29 05:14:32;;;;;;;20.45;8.98;;;9.90;99.90;;;;;;6200005;23;19996;-65
2023/10/29 05:16:58;;;;;;;25.58;10.73;;;10.00;99.90;;;;;;6175364;23;20008;-65
2023/10/29 05:19:24;;;;;;;22.25;9.93;;;10.00;99.90;;;;;;6199465;23;20008;-65
2023/10/29 05:21:50;;;;;;;23.98;10.00;;;10.00;99.90;;;;;;6198147;23;20005;-65
2023/10/29 05:24:16;;;;;;;26.83;11.38;;;10.00;99.90;;;;;;6199719;23;20017;-66
2023/10/29 05:26:42;;;;;;;23.17;9.75;;;10.00;99.90;;;;;;6201212;23;20051;-65
2023/10/29 05:29:08;;;;;;;19.58;9.50;;;10.10;99.90;;;;;;6198398;23;20012;-65
2023/10/29 05:31:34;;;;;;;22.85;11.20;;;10.10;99.90;;;;;;6200405;23;20079;-65
2023/10/29 05:34:00;;;;;;;19.55;9.30;;;10.10;99.90;;;;;;6198951;23;20075;-67
2023/10/29 05:36:26;;;;;;;26.15;10.63;;;10.20;99.90;;;;;;6202118;23;20004;-69
2023/10/29 05:38:52;;;;;;;25.38;11.48;;;10.20;99.90;;;;;;6201390;23;20479;-69
2023/10/29 05:41:17;;;;;;;21.50;10.57;;;10.20;99.90;;;;;;6200748;23;20379;-69
2023/10/29 05:43:43;;;;;;;24.92;11.65;;;10.30;99.90;;;;;;6199448;23;20013;-69
2023/10/29 05:46:12;;;;;;;24.75;12.60;;;10.20;99.90;;;;;;6199110;23;20000;-67
2023/10/29 05:48:39;;;;;;;29.85;14.02;;;10.20;99.90;;;;;;6199373;23;20011;-67
2023/10/29 05:51:05;;;;;;;32.67;15.23;;;10.20;99.90;;;;;;6199950;23;20005;-67
2023/10/29 05:53:30;;;;;;;23.52;13.35;;;10.30;99.90;;;;;;6201574;23;20004;-68
2023/10/29 05:55:56;;;;;;;26.65;13.57;;;10.30;99.90;;;;;;6200725;23;20012;-67
2023/10/29 05:58:24;;;;;;;25.42;12.25;;;10.40;99.90;;;;;;6201151;23;20031;-68
2023/10/29 06:00:50;;;;;;;18.70;9.98;;;10.40;99.90;;;;;;6201623;23;20043;-67
2023/10/29 06:03:16;;;;;;;21.50;10.45;;;10.50;99.90;;;;;;6198517;23;20580;-68
2023/10/29 06:05:42;;;;;;;19.45;11.18;;;10.40;99.90;;;;;;6201751;23;20076;-68
2023/10/29 06:08:07;;;;;;;19.55;11.43;;;10.40;99.90;;;;;;6199691;23;20355;-68
2023/10/29 06:10:33;;;;;;;28.80;14.95;;;10.40;99.90;;;;;;6193563;23;20016;-68
2023/10/29 06:13:02;;;;;;;26.02;14.75;;;10.40;99.90;;;;;;6199531;23;20000;-65
2023/10/29 06:15:28;;;;;;;26.33;14.18;;;10.50;99.90;;;;;;6199722;23;20031;-65
2023/10/29 06:17:54;;;;;;;26.83;12.23;;;10.50;99.90;;;;;;6202729;23;20020;-67
2023/10/29 06:20:21;;;;;;;19.65;10.73;;;10.50;99.90;;;;;;6200477;23;20011;-65
2023/10/29 06:22:50;;;;;;;19.52;9.98;;;10.50;99.90;;;;;;6194828;23;20012;-65
2023/10/29 06:25:16;;;;;;;18.95;9.75;;;10.60;99.90;;;;;;6199846;23;20001;-65
2023/10/29 06:27:42;;;;;;;20.55;10.10;;;10.60;99.90;;;;;;6201167;23;20067;-65
2023/10/29 06:30:13;;;;;;;17.35;9.40;;;10.60;99.90;;;;;;6198714;23;20008;-67
2023/10/29 06:32:39;;;;;;;16.67;9.38;;;10.70;99.90;;;;;;6199568;23;20033;-69
2023/10/29 06:35:05;;;;;;;14.13;9.25;;;10.70;99.90;;;;;;6199394;23;20004;-68
2023/10/29 06:37:31;;;;;;;17.10;9.60;;;10.70;99.90;;;;;;6200929;23;20075;-67
2023/10/29 06:39:57;;;;;;;17.10;10.32;;;10.70;99.90;;;;;;6199166;23;20079;-68
2023/10/29 06:42:22;;;;;;;15.38;9.07;;;10.80;99.90;;;;;;6198773;23;20247;-68
2023/10/29 06:44:48;;;;;;;15.98;10.25;;;10.70;99.90;;;;;;6199973;23;20012;-68
2023/10/29 06:47:14;;;;;;;17.15;10.63;;;10.80;99.90;;;;;;6199232;23;20012;-69
2023/10/29 06:49:40;;;;;;;17.85;10.63;;;10.80;99.90;;;;;;6199313;23;20009;-68
2023/10/29 06:52:06;;;;;;;16.00;9.13;;;10.90;99.90;;;;;;6197640;23;20383;-69
2023/10/29 06:54:32;;;;;;;20.70;9.80;;;10.90;99.90;;;;;;6199929;23;20104;-67
2023/10/29 06:56:58;;;;;;;15.65;9.88;;;10.90;99.90;;;;;;6198238;23;20079;-67
2023/10/29 06:59:23;;;;;;;15.93;9.57;;;10.90;99.90;;;;;;6199823;23;20030;-68
2023/10/29 07:01:50;;;;;;;12.88;10.02;;;11.00;99.90;;;;;;6199108;23;20472;-68
2023/10/29 07:04:16;;;;;;;16.23;10.85;;;11.00;99.90;;;;;;6200640;23;20100;-68
2023/10/29 07:06:42;;;;;;;14.75;10.23;;;11.00;99.90;;;;;;6200529;23;20020;-67
2023/10/29 07:09:08;;;;;;;16.98;10.00;;;11.10;99.90;;;;;;6202137;23;20091;-67
2023/10/29 07:11:34;;;;;;;13.98;9.48;;;11.10;99.90;;;;;;6198748;23;20481;-67
2023/10/29 07:14:00;;;;;;;19.90;9.98;;;11.20;99.90;;;;;;6200541;23;20028;-68
2023/10/29 07:16:25;;;;;;;12.40;9.30;;;11.10;99.90;;;;;;6201464;23;20336;-68
2023/10/29 07:18:51;;;;;;;14.50;9.15;;;11.20;99.90;;;;;;6171526;23;20028;-68
2023/10/29 07:21:17;;;;;;;12.95;9.50;;;11.20;99.90;;;;;;6197170;23;20031;-67
2023/10/29 07:23:44;;;;;;;11.50;8.63;;;11.20;99.90;;;;;;6170672;23;20027;-68
2023/10/29 07:26:09;;;;;;;14.45;9.43;;;11.30;99.90;;;;;;6198842;23;20489;-66
2023/10/29 07:28:35;;;;;;;12.45;8.60;;;11.30;99.90;;;;;;6198451;23;20004;-66
2023/10/29 07:31:03;;;;;;;11.07;8.40;;;11.30;99.90;;;;;;6200377;23;20039;-66
2023/10/29 07:33:29;;;;;;;10.80;8.60;;;11.40;99.90;;;;;;6171727;23;20059;-66
2023/10/29 07:35:55;;;;;;;11.45;8.88;;;11.40;99.90;;;;;;6171705;23;20024;-66
2023/10/29 07:38:20;;;;;;;14.27;9.32;;;11.50;99.90;;;;;;6199823;23;20005;-66
2023/10/29 07:40:46;;;;;;;12.25;9.32;;;11.50;99.90;;;;;;6199209;23;20005;-66
2023/10/29 07:43:11;;;;;;;14.10;9.48;;;11.40;99.90;;;;;;6199036;23;20445;-67
2023/10/29 07:45:37;;;;;;;13.52;8.65;;;11.50;99.90;;;;;;6174680;23;20016;-65
2023/10/29 07:48:03;;;;;;;12.27;9.45;;;11.50;99.90;;;;;;6200198;23;20012;-64
2023/10/29 07:50:29;;;;;;;12.63;9.57;;;11.50;99.90;;;;;;6194616;23;20351;-65
2023/10/29 07:52:55;;;;;;;12.40;8.80;;;11.60;99.90;;;;;;6194605;23;20420;-64
2023/10/29 07:55:21;;;;;;;10.93;8.82;;;11.60;99.90;;;;;;6197386;23;20005;-65
2023/10/29 07:57:46;;;;;;;10.85;8.65;;;11.70;99.90;;;;;;6196468;23;20076;-66
2023/10/29 08:00:13;;;;;;;11.70;8.45;;;11.70;99.90;;;;;;6198412;23;20000;-66
2023/10/29 08:02:40;;;;;;;11.75;8.77;;;11.70;99.90;;;;;;6199331;23;20417;-67
2023/10/29 08:05:06;;;;;;;12.40;9.38;;;11.70;99.90;;;;;;6197995;23;20738;-68
2023/10/29 08:07:32;;;;;;;11.73;8.50;;;11.80;99.90;;;;;;6197591;23;20000;-69
2023/10/29 08:09:57;;;;;;;11.02;9.10;;;11.80;99.90;;;;;;6193872;23;20024;-67
2023/10/29 08:12:24;;;;;;;17.42;9.52;;;11.80;99.90;;;;;;6196982;23;20016;-68
2023/10/29 08:14:50;;;;;;;11.95;9.00;;;11.80;99.90;;;;;;6199184;23;20077;-68
2023/10/29 08:17:17;;;;;;;13.95;9.30;;;11.70;99.90;;;;;;6195757;23;20088;-72
2023/10/29 08:19:44;;;;;;;11.60;8.20;;;11.70;99.90;;;;;;6191906;23;20032;-71
2023/10/29 08:22:10;;;;;;;10.48;7.65;;;11.70;99.90;;;;;;6195984;23;20167;-71
2023/10/29 08:24:35;;;;;;;10.23;7.70;;;11.70;99.90;;;;;;6199688;23;20625;-73
2023/10/29 08:27:01;;;;;;;10.65;7.88;;;11.80;99.90;;;;;;6200562;23;20096;-73
2023/10/29 08:29:27;;;;;;;12.73;9.00;;;11.80;99.90;;;;;;6190847;23;20506;-73
2023/10/29 08:31:52;;;;;;;11.88;7.15;;;11.90;99.90;;;;;;6188702;23;20374;-73
2023/10/29 08:34:18;;;;;;;9.05;7.22;;;12.00;99.90;;;;;;6195815;23;20005;-75
2023/10/29 08:36:44;;;;;;;9.35;7.60;;;12.00;99.90;;;;;;6199771;23;20001;-75
2023/10/29 08:39:09;;;;;;;12.05;8.30;;;12.00;99.90;;;;;;6194942;23;20009;-76
2023/10/29 08:41:35;;;;;;;10.85;7.32;;;11.90;99.90;;;;;;6196538;23;20000;-73
2023/10/29 08:44:01;;;;;;;9.85;7.28;;;11.90;99.90;;;;;;6196355;23;20017;-73
2023/10/29 08:46:26;;;;;;;10.48;8.13;;;12.00;99.90;;;;;;6200721;23;20000;-73
2023/10/29 08:48:52;;;;;;;13.30;7.93;;;12.10;99.90;;;;;;6197398;23;20009;-74
2023/10/29 08:51:18;;;;;;;10.88;7.57;;;12.10;99.90;;;;;;6198482;23;20058;-72
2023/10/29 08:53:43;;;;;;;11.40;7.32;;;12.10;99.90;;;;;;6194040;23;20004;-74
2023/10/29 08:56:09;;;;;;;9.77;7.45;;;12.10;99.90;;;;;;6198259;23;20000;-75
2023/10/29 08:58:35;;;;;;;11.82;7.10;;;12.10;99.90;;;;;;6198892;23;20004;-75
2023/10/29 09:01:06;;;;;;;10.73;7.18;;;12.20;99.90;;;;;;6199817;23;20054;-74
2023/10/29 09:03:32;;;;;;;11.57;7.70;;;12.20;99.90;;;;;;6199556;23;20012;-75
2023/10/29 09:06:04;;;;;;;13.20;8.65;;;12.20;99.90;;;;;;6194392;23;20398;-73
2023/10/29 09:08:33;;;;;;;11.55;8.73;;;12.20;99.90;;;;;;6197682;23;20505;-74
2023/10/29 09:10:59;;;;;;;14.93;8.77;;;12.20;99.90;;;;;;6197115;23;20593;-73
2023/10/29 09:13:25;;;;;;;14.85;8.07;;;12.20;99.90;;;;;;6173697;23;20009;-74
2023/10/29 09:15:51;;;;;;;11.32;8.20;;;12.30;99.90;;;;;;6199409;23;20011;-64
2023/10/29 09:18:16;;;;;;;12.18;8.40;;;12.40;99.90;;;;;;6194248;23;20012;-73
2023/10/29 09:20:46;;;;;;;13.65;8.35;;;12.40;99.90;;;;;;6198777;23;20486;-73
2023/10/29 09:23:14;;;;;;;11.80;7.75;;;12.40;99.90;;;;;;6173077;23;20039;-70
2023/10/29 09:25:43;;;;;;;15.23;9.35;;;12.50;99.90;;;;;;6200825;23;20004;-72
2023/10/29 09:28:11;;;;;;;15.52;10.25;;;12.50;99.90;;;;;;6197715;23;20028;-73
2023/10/29 09:30:37;;;;;;;12.48;9.40;;;12.50;99.90;;;;;;6201520;23;20012;-72
2023/10/29 09:33:03;;;;;;;13.80;10.02;;;12.50;99.90;;;;;;6200121;23;20005;-72
2023/10/29 09:35:29;;;;;;;11.32;9.00;;;12.50;99.90;;;;;;6199354;23;20001;-63
2023/10/29 09:37:55;;;;;;;13.70;8.27;;;12.50;99.90;;;;;;6201412;23;20012;-64
2023/10/29 09:40:20;;;;;;;13.30;9.25;;;12.50;99.90;;;;;;6198995;23;20359;-64
2023/10/29 09:42:55;;;;;;;15.73;9.80;;;12.50;99.90;;;;;;6200785;23;20020;-64
2023/10/29 09:45:26;;;;;;;15.85;10.48;;;12.60;99.90;;;;;;6197106;23;20066;-64
2023/10/29 09:47:57;;;;;;;11.82;9.13;;;12.60;99.90;;;;;;6199073;23;20103;-64
2023/10/29 09:50:23;;;;;;;19.17;9.73;;;12.60;99.90;;;;;;6199734;23;20000;-64
2023/10/29 09:52:50;;;;;;;14.10;9.77;;;12.60;99.90;;;;;;6198611;23;20474;-64
2023/10/29 09:55:20;;;;;;;14.75;9.43;;;12.70;99.90;;;;;;6171777;23;20016;-74
2023/10/29 09:57:47;;;;;;;13.38;9.52;;;12.70;99.90;;;;;;6201560;23;20009;-73
2023/10/29 10:00:15;;;;;;;16.40;10.27;;;12.60;99.90;;;;;;6198894;23;20000;-77
2023/10/29 10:02:50;;;;;;;12.07;8.63;;;12.60;99.90;;;;;;6174755;23;20525;-70
2023/10/29 10:05:20;;;;;;;11.35;8.60;;;12.60;99.90;;;;;;6194164;23;20490;-76
2023/10/29 10:07:45;;;;;;;12.77;9.30;;;12.70;99.90;;;;;;6201046;23;20016;-75
2023/10/29 10:10:11;;;;;;;11.27;8.70;;;12.80;99.90;;;;;;6187531;23;20020;-75
2023/10/29 10:12:50;;;;;;;10.27;8.40;;;12.80;99.90;;;;;;6196609;23;20004;-63
2023/10/29 10:15:17;;;;;;;11.63;8.50;;;12.90;99.90;;;;;;6190061;23;20058;-63
2023/10/29 10:17:50;;;;;;;11.48;8.40;;;12.90;99.90;;;;;;6193665;23;20389;-63
2023/10/29 10:20:20;;;;;;;12.07;8.05;;;12.90;99.90;;;;;;6191194;23;20528;-63
2023/10/29 10:22:45;;;;;;;11.57;7.90;;;13.00;99.90;;;;;;6200061;23;20009;-63
2023/10/29 10:25:20;;;;;;;12.30;7.88;;;12.90;99.90;;;;;;6197839;23;20039;-63
2023/10/29 10:27:51;;;;;;;10.90;8.20;;;13.00;99.90;;;;;;6200540;23;20050;-63
2023/10/29 10:30:28;;;;;;;11.32;8.32;;;13.10;99.90;;;;;;6203750;23;20402;-63
2023/10/29 10:33:12;;;;;;;11.30;7.95;;;13.20;99.90;;;;;;6201814;23;20005;-64
2023/10/29 10:35:45;;;;;;;10.38;8.30;;;13.20;99.90;;;;;;6201903;23;20036;-64
2023/10/29 10:38:13;;;;;;;11.73;8.45;;;13.30;99.90;;;;;;6202448;23;20435;-63
2023/10/29 10:40:39;;;;;;;12.88;10.75;;;13.40;99.90;;;;;;6201136;23;20012;-63
2023/10/29 10:43:06;;;;;;;10.43;7.47;;;13.50;99.90;;;;;;6199643;23;20020;-63
2023/10/29 10:45:33;;;;;;;10.18;8.40;;;13.70;99.90;;;;;;6200727;23;20387;-63
2023/10/29 10:48:00;;;;;;;9.13;7.20;;;13.80;99.90;;;;;;6199902;23;20004;-63
2023/10/29 10:50:27;;;;;;;8.68;7.10;;;13.90;99.90;;;;;;6200858;23;20005;-63
2023/10/29 10:52:54;;;;;;;11.93;7.88;;;13.90;99.90;;;;;;6201887;23;20054;-63
2023/10/29 10:55:20;;;;;;;9.32;6.78;;;13.90;99.90;;;;;;6196989;23;20683;-63
2023/10/29 10:57:51;;;;;;;10.65;7.63;;;14.00;99.90;;;;;;6197051;23;20080;-63
2023/10/29 11:00:18;;;;;;;7.75;6.70;;;14.00;99.90;;;;;;6202104;23;20024;-63
2023/10/29 11:02:45;;;;;;;10.50;7.15;;;14.00;99.90;;;;;;6202564;23;20063;-62
2023/10/29 11:05:12;;;;;;;7.45;6.22;;;14.20;99.90;;;;;;6202706;23;20011;-63
2023/10/29 11:07:39;;;;;;;10.15;6.35;;;14.50;99.90;;;;;;6201844;23;20005;-76
2023/10/29 11:10:08;;;;;;;7.60;5.70;;;14.60;99.90;;;;;;6201993;23;20028;-75
2023/10/29 11:12:37;;;;;;;9.10;6.53;;;14.80;99.90;;;;;;6202601;23;20011;-75
2023/10/29 11:15:20;;;;;;;8.80;5.65;;;14.90;99.90;;;;;;6202402;23;20381;-75
2023/10/29 11:17:54;;;;;;;8.85;5.90;;;15.00;99.90;;;;;;6203228;23;20529;-76
2023/10/29 11:20:38;;;;;;;9.38;6.07;;;15.00;99.90;;;;;;6201789;23;20013;-77
2023/10/29 11:23:13;;;;;;;8.70;5.90;;;15.00;99.90;;;;;;6203106;23;20338;-76
2023/10/29 11:25:40;;;;;;;9.38;5.82;;;15.10;99.90;;;;;;6173671;23;20004;-76
2023/10/29 11:28:06;;;;;;;10.95;6.78;;;15.10;99.90;;;;;;6203262;23;20075;-76
2023/10/29 11:30:32;;;;;;;8.50;5.88;;;15.10;99.90;;;;;;6175309;23;20883;-76
2023/10/29 11:33:09;;;;;;;8.13;5.45;;;15.20;99.90;;;;;;6203557;23;20016;-76
2023/10/29 11:35:36;;;;;;;7.50;5.38;;;15.20;99.90;;;;;;6202039;23;20812;-77
2023/10/29 11:38:22;;;;;;;8.20;5.75;;;15.30;99.90;;;;;;6203179;23;20005;-76
2023/10/29 11:40:49;;;;;;;6.43;5.57;;;15.40;99.90;;;;;;6200621;23;20433;-77
2023/10/29 11:43:22;;;;;;;6.45;5.22;;;15.60;99.90;;;;;;6201709;23;20480;-76
2023/10/29 11:45:58;;;;;;;7.50;5.15;;;15.80;99.90;;;;;;6174217;23;20015;-77
2023/10/29 11:48:24;;;;;;;7.80;5.25;;;15.90;99.90;;;;;;6203442;23;20103;-77
2023/10/29 11:51:05;;;;;;;5.72;4.80;;;16.00;99.90;;;;;;6175115;23;20087;-77
2023/10/29 11:53:32;;;;;;;6.35;5.35;;;16.10;99.90;;;;;;6201544;23;20008;-77
2023/10/29 11:56:04;;;;;;;7.47;5.40;;;16.10;99.90;;;;;;6197474;23;20508;-78
2023/10/29 11:58:31;;;;;;;6.97;5.00;;;16.20;99.90;;;;;;6193374;23;20108;-71
2023/10/29 12:00:59;;;;;;;6.65;5.03;;;16.20;99.90;;;;;;6202268;23;20036;-73
2023/10/29 12:03:25;;;;;;;7.85;4.97;;;16.30;99.90;;;;;;6199764;23;20043;-73
2023/10/29 12:05:55;;;;;;;7.20;5.18;;;16.40;99.90;;;;;;6200172;23;19997;-73
2023/10/29 12:08:21;;;;;;;6.07;4.68;;;16.50;99.90;;;;;;6200972;23;20031;-73
2023/10/29 12:10:48;;;;;;;8.80;4.90;;;16.60;99.90;;;;;;6200861;23;20095;-73
2023/10/29 12:13:18;;;;;;;5.18;4.43;;;16.50;99.90;;;;;;6200354;23;20671;-73
2023/10/29 12:15:48;;;;;;;6.35;4.85;;;16.50;99.90;;;;;;6171128;23;20468;-73
2023/10/29 12:18:24;;;;;;;6.88;4.40;;;16.50;99.90;;;;;;6197647;23;20461;-73
2023/10/29 12:21:01;;;;;;;7.90;4.40;;;16.60;99.90;;;;;;6198528;23;20004;-73
2023/10/29 12:23:27;;;;;;;4.53;4.07;;;16.70;99.90;;;;;;6201819;23;20818;-74
2023/10/29 12:25:53;;;;;;;7.20;4.97;;;16.80;99.90;;;;;;6197468;23;20000;-74
2023/10/29 12:28:19;;;;;;;7.63;4.00;;;16.80;99.90;;;;;;6172366;23;20043;-74
2023/10/29 12:30:50;;;;;;;5.30;4.18;;;16.90;99.90;;;;;;6198056;23;20001;-74
2023/10/29 12:33:25;;;;;;;7.22;4.30;;;16.90;99.90;;;;;;6198154;23;20067;-75
2023/10/29 12:35:52;;;;;;;6.60;4.07;;;17.00;99.90;;;;;;6198051;23;20092;-75
2023/10/29 12:38:20;;;;;;;4.70;4.03;;;17.20;99.90;;;;;;6200450;23;20329;-67
2023/10/29 12:41:13;;;;;;;4.35;3.92;;;17.30;99.90;;;;;;6174897;23;20039;-67
2023/10/29 12:43:53;;;;;;;5.10;4.30;;;17.50;99.90;;;;;;6200757;23;20020;-66